Terminal Aerodrome Forecast
Issued by NWS Jackson, MS

Home | Current Version | Previous Version | Text Only | Print | Product List | Glossary On
Versions: 1 2 3 4 5 6 7 8 9 10 11 12 13 14 15 16
000
FTUS44 KJAN 251700
TAFGLH
TAF
KGLH 251721Z 2518/2618 24014G18KT P6SM SCT100 SCT250
     FM252000 27016G22KT P6SM BKN100
     FM260000 30013KT P6SM SCT050 OVC100
     FM261300 33011KT P6SM SCT100=

USA.gov is the U.S. government's official web portal to all federal, state and local government web resources and services.